sensor_id;sensor_type;location;lat;lon;timestamp;P1;durP1;ratioP1;P2;durP2;ratioP2
14141;SDS011;7151;52.246;4.820;2024-02-26T00:01:39;2.27;;;1.80;;
14141;SDS011;7151;52.246;4.820;2024-02-26T00:04:05;1.63;;;1.47;;
14141;SDS011;7151;52.246;4.820;2024-02-26T00:06:31;2.17;;;1.47;;
14141;SDS011;7151;52.246;4.820;2024-02-26T00:08:56;1.83;;;1.60;;
14141;SDS011;7151;52.246;4.820;2024-02-26T00:11:22;2.53;;;1.53;;
14141;SDS011;7151;52.246;4.820;2024-02-26T00:13:48;1.57;;;1.30;;
14141;SDS011;7151;52.246;4.820;2024-02-26T00:16:13;1.40;;;1.30;;
14141;SDS011;7151;52.246;4.820;2024-02-26T00:18:39;2.57;;;1.27;;
14141;SDS011;7151;52.246;4.820;2024-02-26T00:21:05;2.00;;;1.50;;
14141;SDS011;7151;52.246;4.820;2024-02-26T00:23:30;1.83;;;1.30;;
14141;SDS011;7151;52.246;4.820;2024-02-26T00:25:56;2.60;;;1.40;;
14141;SDS011;7151;52.246;4.820;2024-02-26T00:28:21;1.67;;;1.20;;
14141;SDS011;7151;52.246;4.820;2024-02-26T00:30:47;2.30;;;1.53;;
14141;SDS011;7151;52.246;4.820;2024-02-26T00:33:16;1.50;;;1.40;;
14141;SDS011;7151;52.246;4.820;2024-02-26T00:35:42;2.20;;;1.93;;
14141;SDS011;7151;52.246;4.820;2024-02-26T00:38:07;1.60;;;1.33;;
14141;SDS011;7151;52.246;4.820;2024-02-26T00:40:33;2.97;;;1.40;;
14141;SDS011;7151;52.246;4.820;2024-02-26T00:42:59;1.37;;;1.27;;
14141;SDS011;7151;52.246;4.820;2024-02-26T00:45:25;2.90;;;1.60;;
14141;SDS011;7151;52.246;4.820;2024-02-26T00:47:50;2.00;;;1.50;;
14141;SDS011;7151;52.246;4.820;2024-02-26T00:50:16;2.10;;;1.70;;
14141;SDS011;7151;52.246;4.820;2024-02-26T00:52:42;2.87;;;1.50;;
14141;SDS011;7151;52.246;4.820;2024-02-26T00:55:07;1.70;;;1.60;;
14141;SDS011;7151;52.246;4.820;2024-02-26T00:57:33;3.27;;;1.87;;
14141;SDS011;7151;52.246;4.820;2024-02-26T00:59:59;1.97;;;1.80;;
14141;SDS011;7151;52.246;4.820;2024-02-26T01:02:25;1.43;;;1.33;;
14141;SDS011;7151;52.246;4.820;2024-02-26T01:04:51;2.37;;;1.80;;
14141;SDS011;7151;52.246;4.820;2024-02-26T01:07:17;2.70;;;1.97;;
14141;SDS011;7151;52.246;4.820;2024-02-26T01:09:42;3.30;;;1.53;;
14141;SDS011;7151;52.246;4.820;2024-02-26T01:12:08;1.90;;;1.67;;
14141;SDS011;7151;52.246;4.820;2024-02-26T01:14:33;3.47;;;2.20;;
14141;SDS011;7151;52.246;4.820;2024-02-26T01:16:59;2.17;;;1.97;;
14141;SDS011;7151;52.246;4.820;2024-02-26T01:19:25;2.80;;;2.27;;
14141;SDS011;7151;52.246;4.820;2024-02-26T01:21:50;2.93;;;2.10;;
14141;SDS011;7151;52.246;4.820;2024-02-26T01:24:16;3.30;;;2.40;;
14141;SDS011;7151;52.246;4.820;2024-02-26T01:26:42;4.57;;;2.30;;
14141;SDS011;7151;52.246;4.820;2024-02-26T01:29:08;2.60;;;2.30;;
14141;SDS011;7151;52.246;4.820;2024-02-26T01:31:33;2.90;;;2.47;;
14141;SDS011;7151;52.246;4.820;2024-02-26T01:33:59;3.27;;;2.10;;
14141;SDS011;7151;52.246;4.820;2024-02-26T01:36:25;3.33;;;2.60;;
14141;SDS011;7151;52.246;4.820;2024-02-26T01:38:51;4.47;;;2.63;;
14141;SDS011;7151;52.246;4.820;2024-02-26T01:41:16;4.83;;;2.93;;
14141;SDS011;7151;52.246;4.820;2024-02-26T01:43:42;2.97;;;2.63;;
14141;SDS011;7151;52.246;4.820;2024-02-26T01:46:11;4.63;;;2.90;;
14141;SDS011;7151;52.246;4.820;2024-02-26T01:48:43;3.60;;;2.47;;
14141;SDS011;7151;52.246;4.820;2024-02-26T01:51:12;3.40;;;2.70;;
14141;SDS011;7151;52.246;4.820;2024-02-26T01:53:39;3.33;;;2.70;;
14141;SDS011;7151;52.246;4.820;2024-02-26T01:56:05;3.83;;;2.80;;
14141;SDS011;7151;52.246;4.820;2024-02-26T01:58:31;4.27;;;3.17;;
14141;SDS011;7151;52.246;4.820;2024-02-26T02:00:59;3.50;;;2.10;;
14141;SDS011;7151;52.246;4.820;2024-02-26T02:03:25;2.73;;;2.23;;
14141;SDS011;7151;52.246;4.820;2024-02-26T02:05:51;3.37;;;2.10;;
14141;SDS011;7151;52.246;4.820;2024-02-26T02:08:17;1.97;;;1.87;;
14141;SDS011;7151;52.246;4.820;2024-02-26T02:10:43;3.60;;;2.00;;
14141;SDS011;7151;52.246;4.820;2024-02-26T02:13:12;2.57;;;2.23;;
14141;SDS011;7151;52.246;4.820;2024-02-26T02:15:38;3.63;;;2.07;;
14141;SDS011;7151;52.246;4.820;2024-02-26T02:18:04;2.43;;;1.90;;
14141;SDS011;7151;52.246;4.820;2024-02-26T02:20:34;2.90;;;2.57;;
14141;SDS011;7151;52.246;4.820;2024-02-26T02:23:00;2.40;;;2.13;;
14141;SDS011;7151;52.246;4.820;2024-02-26T02:25:26;2.30;;;2.10;;
14141;SDS011;7151;52.246;4.820;2024-02-26T02:27:52;4.13;;;2.40;;
14141;SDS011;7151;52.246;4.820;2024-02-26T02:30:19;5.37;;;2.70;;
14141;SDS011;7151;52.246;4.820;2024-02-26T02:32:46;2.67;;;2.30;;
14141;SDS011;7151;52.246;4.820;2024-02-26T02:35:12;3.17;;;2.53;;
14141;SDS011;7151;52.246;4.820;2024-02-26T02:37:37;4.30;;;2.43;;
14141;SDS011;7151;52.246;4.820;2024-02-26T02:40:03;4.10;;;2.70;;
14141;SDS011;7151;52.246;4.820;2024-02-26T02:42:30;3.60;;;2.63;;
14141;SDS011;7151;52.246;4.820;2024-02-26T02:44:55;3.57;;;2.80;;
14141;SDS011;7151;52.246;4.820;2024-02-26T02:47:21;3.80;;;2.60;;
14141;SDS011;7151;52.246;4.820;2024-02-26T02:49:47;5.03;;;2.37;;
14141;SDS011;7151;52.246;4.820;2024-02-26T02:52:12;4.60;;;2.93;;
14141;SDS011;7151;52.246;4.820;2024-02-26T02:54:38;4.00;;;2.97;;
14141;SDS011;7151;52.246;4.820;2024-02-26T02:57:06;3.37;;;2.43;;
14141;SDS011;7151;52.246;4.820;2024-02-26T02:59:33;5.53;;;2.80;;
14141;SDS011;7151;52.246;4.820;2024-02-26T03:01:58;3.67;;;2.93;;
14141;SDS011;7151;52.246;4.820;2024-02-26T03:04:24;3.63;;;2.80;;
14141;SDS011;7151;52.246;4.820;2024-02-26T03:06:50;3.53;;;2.43;;
14141;SDS011;7151;52.246;4.820;2024-02-26T03:09:15;3.93;;;3.13;;
14141;SDS011;7151;52.246;4.820;2024-02-26T03:11:41;4.43;;;2.80;;
14141;SDS011;7151;52.246;4.820;2024-02-26T03:14:06;3.13;;;2.70;;
14141;SDS011;7151;52.246;4.820;2024-02-26T03:16:33;4.07;;;3.03;;
14141;SDS011;7151;52.246;4.820;2024-02-26T03:18:58;4.10;;;2.93;;
14141;SDS011;7151;52.246;4.820;2024-02-26T03:21:25;4.13;;;2.60;;
14141;SDS011;7151;52.246;4.820;2024-02-26T03:23:52;3.37;;;3.00;;
14141;SDS011;7151;52.246;4.820;2024-02-26T03:26:18;4.00;;;3.07;;
14141;SDS011;7151;52.246;4.820;2024-02-26T03:28:43;5.03;;;2.93;;
14141;SDS011;7151;52.246;4.820;2024-02-26T03:31:09;5.87;;;3.57;;
14141;SDS011;7151;52.246;4.820;2024-02-26T03:33:35;5.17;;;3.40;;
14141;SDS011;7151;52.246;4.820;2024-02-26T03:36:01;4.67;;;3.20;;
14141;SDS011;7151;52.246;4.820;2024-02-26T03:38:28;5.57;;;3.50;;
14141;SDS011;7151;52.246;4.820;2024-02-26T03:40:54;4.87;;;3.50;;
14141;SDS011;7151;52.246;4.820;2024-02-26T03:43:19;3.63;;;3.10;;
14141;SDS011;7151;52.246;4.820;2024-02-26T03:45:46;4.20;;;3.53;;
14141;SDS011;7151;52.246;4.820;2024-02-26T03:48:12;3.87;;;3.10;;
14141;SDS011;7151;52.246;4.820;2024-02-26T03:50:37;5.60;;;3.43;;
14141;SDS011;7151;52.246;4.820;2024-02-26T03:53:03;5.47;;;3.27;;
14141;SDS011;7151;52.246;4.820;2024-02-26T03:55:29;5.27;;;4.20;;
14141;SDS011;7151;52.246;4.820;2024-02-26T03:57:54;4.00;;;3.00;;
14141;SDS011;7151;52.246;4.820;2024-02-26T04:00:20;6.00;;;3.27;;
14141;SDS011;7151;52.246;4.820;2024-02-26T04:02:49;4.37;;;3.23;;
14141;SDS011;7151;52.246;4.820;2024-02-26T04:05:14;6.17;;;3.87;;
14141;SDS011;7151;52.246;4.820;2024-02-26T04:07:40;5.17;;;3.37;;
14141;SDS011;7151;52.246;4.820;2024-02-26T04:10:09;4.83;;;3.40;;
14141;SDS011;7151;52.246;4.820;2024-02-26T04:12:37;5.13;;;3.50;;
14141;SDS011;7151;52.246;4.820;2024-02-26T04:15:10;5.33;;;3.80;;
14141;SDS011;7151;52.246;4.820;2024-02-26T04:17:36;4.77;;;3.50;;
14141;SDS011;7151;52.246;4.820;2024-02-26T04:20:03;8.00;;;4.30;;
14141;SDS011;7151;52.246;4.820;2024-02-26T04:22:30;3.50;;;2.77;;
14141;SDS011;7151;52.246;4.820;2024-02-26T04:24:57;5.23;;;3.60;;
14141;SDS011;7151;52.246;4.820;2024-02-26T04:27:22;6.07;;;3.93;;
14141;SDS011;7151;52.246;4.820;2024-02-26T04:29:48;6.07;;;3.70;;
14141;SDS011;7151;52.246;4.820;2024-02-26T04:32:13;4.70;;;3.20;;
14141;SDS011;7151;52.246;4.820;2024-02-26T04:34:39;6.90;;;3.70;;
14141;SDS011;7151;52.246;4.820;2024-02-26T04:37:05;6.13;;;3.50;;
14141;SDS011;7151;52.246;4.820;2024-02-26T04:39:30;6.07;;;3.97;;
14141;SDS011;7151;52.246;4.820;2024-02-26T04:41:56;6.20;;;4.30;;
14141;SDS011;7151;52.246;4.820;2024-02-26T04:44:21;8.10;;;3.90;;
14141;SDS011;7151;52.246;4.820;2024-02-26T04:46:47;4.33;;;3.30;;
14141;SDS011;7151;52.246;4.820;2024-02-26T04:49:12;5.37;;;3.87;;
14141;SDS011;7151;52.246;4.820;2024-02-26T04:51:38;5.13;;;3.17;;
14141;SDS011;7151;52.246;4.820;2024-02-26T04:54:04;5.10;;;3.60;;
14141;SDS011;7151;52.246;4.820;2024-02-26T04:56:29;6.50;;;4.20;;
14141;SDS011;7151;52.246;4.820;2024-02-26T04:58:55;5.87;;;3.83;;
14141;SDS011;7151;52.246;4.820;2024-02-26T05:01:20;6.33;;;3.47;;
14141;SDS011;7151;52.246;4.820;2024-02-26T05:03:46;6.70;;;4.17;;
14141;SDS011;7151;52.246;4.820;2024-02-26T05:06:12;5.80;;;4.00;;
14141;SDS011;7151;52.246;4.820;2024-02-26T05:08:38;6.33;;;3.53;;
14141;SDS011;7151;52.246;4.820;2024-02-26T05:11:04;5.67;;;3.83;;
14141;SDS011;7151;52.246;4.820;2024-02-26T05:13:30;8.07;;;3.93;;
14141;SDS011;7151;52.246;4.820;2024-02-26T05:15:55;7.47;;;4.33;;
14141;SDS011;7151;52.246;4.820;2024-02-26T05:18:24;7.37;;;4.07;;
14141;SDS011;7151;52.246;4.820;2024-02-26T05:20:50;8.50;;;4.23;;
14141;SDS011;7151;52.246;4.820;2024-02-26T05:23:15;6.53;;;3.90;;
14141;SDS011;7151;52.246;4.820;2024-02-26T05:25:41;6.27;;;4.50;;
14141;SDS011;7151;52.246;4.820;2024-02-26T05:28:07;7.43;;;4.10;;
14141;SDS011;7151;52.246;4.820;2024-02-26T05:30:32;7.33;;;4.23;;
14141;SDS011;7151;52.246;4.820;2024-02-26T05:32:58;7.37;;;4.40;;
14141;SDS011;7151;52.246;4.820;2024-02-26T05:35:24;7.90;;;4.80;;
14141;SDS011;7151;52.246;4.820;2024-02-26T05:37:51;6.30;;;4.57;;
14141;SDS011;7151;52.246;4.820;2024-02-26T05:40:16;8.50;;;5.37;;
14141;SDS011;7151;52.246;4.820;2024-02-26T05:42:42;8.13;;;4.83;;
14141;SDS011;7151;52.246;4.820;2024-02-26T05:45:10;6.57;;;4.63;;
14141;SDS011;7151;52.246;4.820;2024-02-26T05:47:35;7.50;;;4.77;;
14141;SDS011;7151;52.246;4.820;2024-02-26T05:50:07;6.50;;;4.77;;
14141;SDS011;7151;52.246;4.820;2024-02-26T05:52:36;8.17;;;5.00;;
14141;SDS011;7151;52.246;4.820;2024-02-26T05:55:05;7.23;;;4.80;;
14141;SDS011;7151;52.246;4.820;2024-02-26T05:57:31;10.17;;;6.20;;
14141;SDS011;7151;52.246;4.820;2024-02-26T05:59:58;10.70;;;5.80;;
14141;SDS011;7151;52.246;4.820;2024-02-26T06:02:28;10.73;;;5.87;;
14141;SDS011;7151;52.246;4.820;2024-02-26T06:04:54;8.57;;;5.70;;
14141;SDS011;7151;52.246;4.820;2024-02-26T06:07:20;7.77;;;5.23;;
14141;SDS011;7151;52.246;4.820;2024-02-26T06:09:45;9.37;;;5.00;;
14141;SDS011;7151;52.246;4.820;2024-02-26T06:12:11;9.77;;;5.33;;
14141;SDS011;7151;52.246;4.820;2024-02-26T06:14:37;8.00;;;5.63;;
14141;SDS011;7151;52.246;4.820;2024-02-26T06:17:02;8.23;;;5.43;;
14141;SDS011;7151;52.246;4.820;2024-02-26T06:19:28;6.63;;;5.07;;
14141;SDS011;7151;52.246;4.820;2024-02-26T06:21:53;8.13;;;6.10;;
14141;SDS011;7151;52.246;4.820;2024-02-26T06:24:19;11.00;;;5.80;;
14141;SDS011;7151;52.246;4.820;2024-02-26T06:26:47;7.70;;;5.10;;
14141;SDS011;7151;52.246;4.820;2024-02-26T06:29:12;10.07;;;5.63;;
14141;SDS011;7151;52.246;4.820;2024-02-26T06:31:38;9.47;;;6.47;;
14141;SDS011;7151;52.246;4.820;2024-02-26T06:34:04;8.50;;;4.87;;
14141;SDS011;7151;52.246;4.820;2024-02-26T06:36:29;8.60;;;5.40;;
14141;SDS011;7151;52.246;4.820;2024-02-26T06:38:57;6.50;;;5.13;;
14141;SDS011;7151;52.246;4.820;2024-02-26T06:41:22;8.57;;;5.77;;
14141;SDS011;7151;52.246;4.820;2024-02-26T06:43:55;9.30;;;5.13;;
14141;SDS011;7151;52.246;4.820;2024-02-26T06:46:21;8.80;;;5.40;;
14141;SDS011;7151;52.246;4.820;2024-02-26T06:48:47;7.80;;;5.73;;
14141;SDS011;7151;52.246;4.820;2024-02-26T06:51:14;7.20;;;5.30;;
14141;SDS011;7151;52.246;4.820;2024-02-26T06:53:39;9.00;;;5.80;;
14141;SDS011;7151;52.246;4.820;2024-02-26T06:56:05;8.77;;;5.73;;
14141;SDS011;7151;52.246;4.820;2024-02-26T06:58:31;6.87;;;4.70;;
14141;SDS011;7151;52.246;4.820;2024-02-26T07:00:57;7.47;;;4.63;;
14141;SDS011;7151;52.246;4.820;2024-02-26T07:03:22;6.80;;;4.23;;
14141;SDS011;7151;52.246;4.820;2024-02-26T07:05:52;7.07;;;4.67;;
14141;SDS011;7151;52.246;4.820;2024-02-26T07:08:18;4.83;;;3.97;;
14141;SDS011;7151;52.246;4.820;2024-02-26T07:10:43;5.83;;;4.17;;
14141;SDS011;7151;52.246;4.820;2024-02-26T07:13:09;6.53;;;3.80;;
14141;SDS011;7151;52.246;4.820;2024-02-26T07:15:35;6.47;;;4.17;;
14141;SDS011;7151;52.246;4.820;2024-02-26T07:18:00;4.57;;;3.33;;
14141;SDS011;7151;52.246;4.820;2024-02-26T07:20:28;5.07;;;3.87;;
14141;SDS011;7151;52.246;4.820;2024-02-26T07:22:55;6.93;;;3.47;;
14141;SDS011;7151;52.246;4.820;2024-02-26T07:25:21;4.37;;;3.07;;
14141;SDS011;7151;52.246;4.820;2024-02-26T07:27:46;5.03;;;3.43;;
14141;SDS011;7151;52.246;4.820;2024-02-26T07:30:12;6.00;;;2.97;;
14141;SDS011;7151;52.246;4.820;2024-02-26T07:32:38;3.83;;;3.03;;
14141;SDS011;7151;52.246;4.820;2024-02-26T07:35:04;6.17;;;3.53;;
14141;SDS011;7151;52.246;4.820;2024-02-26T07:37:30;6.87;;;3.00;;
14141;SDS011;7151;52.246;4.820;2024-02-26T07:39:56;3.70;;;2.77;;
14141;SDS011;7151;52.246;4.820;2024-02-26T07:42:21;3.47;;;2.17;;
14141;SDS011;7151;52.246;4.820;2024-02-26T07:44:47;3.90;;;2.60;;
14141;SDS011;7151;52.246;4.820;2024-02-26T07:47:13;4.90;;;2.77;;
14141;SDS011;7151;52.246;4.820;2024-02-26T07:49:39;3.47;;;2.40;;
14141;SDS011;7151;52.246;4.820;2024-02-26T07:52:05;3.50;;;2.73;;
14141;SDS011;7151;52.246;4.820;2024-02-26T07:54:31;3.53;;;2.83;;
14141;SDS011;7151;52.246;4.820;2024-02-26T07:56:57;3.40;;;2.00;;
14141;SDS011;7151;52.246;4.820;2024-02-26T07:59:22;3.10;;;2.30;;
14141;SDS011;7151;52.246;4.820;2024-02-26T08:01:52;3.57;;;2.30;;
14141;SDS011;7151;52.246;4.820;2024-02-26T08:04:17;2.87;;;1.77;;
14141;SDS011;7151;52.246;4.820;2024-02-26T08:06:43;3.97;;;2.17;;
14141;SDS011;7151;52.246;4.820;2024-02-26T08:09:09;4.23;;;2.27;;
14141;SDS011;7151;52.246;4.820;2024-02-26T08:11:34;2.83;;;2.23;;
14141;SDS011;7151;52.246;4.820;2024-02-26T08:14:00;2.20;;;2.00;;
14141;SDS011;7151;52.246;4.820;2024-02-26T08:16:26;3.10;;;2.63;;
14141;SDS011;7151;52.246;4.820;2024-02-26T08:18:52;3.07;;;1.93;;
14141;SDS011;7151;52.246;4.820;2024-02-26T08:21:17;3.43;;;2.30;;
14141;SDS011;7151;52.246;4.820;2024-02-26T08:23:43;2.80;;;1.97;;
14141;SDS011;7151;52.246;4.820;2024-02-26T08:26:09;3.43;;;1.83;;
14141;SDS011;7151;52.246;4.820;2024-02-26T08:28:39;2.73;;;2.03;;
14141;SDS011;7151;52.246;4.820;2024-02-26T08:31:05;4.33;;;2.03;;
14141;SDS011;7151;52.246;4.820;2024-02-26T08:33:30;3.43;;;2.27;;
14141;SDS011;7151;52.246;4.820;2024-02-26T08:35:56;2.17;;;1.70;;
14141;SDS011;7151;52.246;4.820;2024-02-26T08:38:22;1.80;;;1.60;;
14141;SDS011;7151;52.246;4.820;2024-02-26T08:40:48;3.50;;;1.60;;
14141;SDS011;7151;52.246;4.820;2024-02-26T08:43:14;1.93;;;1.83;;
14141;SDS011;7151;52.246;4.820;2024-02-26T08:45:39;3.33;;;1.87;;
14141;SDS011;7151;52.246;4.820;2024-02-26T08:48:05;2.83;;;1.80;;
14141;SDS011;7151;52.246;4.820;2024-02-26T08:50:32;2.40;;;1.60;;
14141;SDS011;7151;52.246;4.820;2024-02-26T08:52:58;2.53;;;2.03;;
14141;SDS011;7151;52.246;4.820;2024-02-26T08:55:26;4.23;;;1.83;;
14141;SDS011;7151;52.246;4.820;2024-02-26T08:57:51;2.27;;;1.80;;
14141;SDS011;7151;52.246;4.820;2024-02-26T09:00:17;3.60;;;1.77;;
14141;SDS011;7151;52.246;4.820;2024-02-26T09:02:45;2.07;;;1.60;;
14141;SDS011;7151;52.246;4.820;2024-02-26T09:05:12;2.60;;;1.70;;
14141;SDS011;7151;52.246;4.820;2024-02-26T09:07:38;2.80;;;1.70;;
14141;SDS011;7151;52.246;4.820;2024-02-26T09:10:04;2.63;;;2.03;;
14141;SDS011;7151;52.246;4.820;2024-02-26T09:12:30;4.20;;;2.03;;
14141;SDS011;7151;52.246;4.820;2024-02-26T09:14:56;5.47;;;2.17;;
14141;SDS011;7151;52.246;4.820;2024-02-26T09:17:22;3.90;;;1.80;;
14141;SDS011;7151;52.246;4.820;2024-02-26T09:19:48;3.27;;;1.77;;
14141;SDS011;7151;52.246;4.820;2024-02-26T09:22:13;2.07;;;1.70;;
14141;SDS011;7151;52.246;4.820;2024-02-26T09:24:39;3.70;;;1.73;;
14141;SDS011;7151;52.246;4.820;2024-02-26T09:27:05;3.03;;;1.50;;
14141;SDS011;7151;52.246;4.820;2024-02-26T09:29:30;3.10;;;1.90;;
14141;SDS011;7151;52.246;4.820;2024-02-26T09:31:56;2.13;;;1.70;;
14141;SDS011;7151;52.246;4.820;2024-02-26T09:34:21;2.43;;;1.70;;
14141;SDS011;7151;52.246;4.820;2024-02-26T09:36:47;2.10;;;1.80;;
14141;SDS011;7151;52.246;4.820;2024-02-26T09:39:13;2.10;;;1.90;;
14141;SDS011;7151;52.246;4.820;2024-02-26T09:41:39;2.37;;;1.87;;
14141;SDS011;7151;52.246;4.820;2024-02-26T09:44:05;2.63;;;1.83;;
14141;SDS011;7151;52.246;4.820;2024-02-26T09:46:32;3.60;;;2.33;;
14141;SDS011;7151;52.246;4.820;2024-02-26T09:48:58;1.93;;;1.57;;
14141;SDS011;7151;52.246;4.820;2024-02-26T09:51:23;2.40;;;1.80;;
14141;SDS011;7151;52.246;4.820;2024-02-26T09:53:53;2.67;;;1.40;;
14141;SDS011;7151;52.246;4.820;2024-02-26T09:56:21;2.37;;;1.83;;
14141;SDS011;7151;52.246;4.820;2024-02-26T09:58:47;3.53;;;2.03;;
14141;SDS011;7151;52.246;4.820;2024-02-26T10:01:18;2.50;;;1.93;;
14141;SDS011;7151;52.246;4.820;2024-02-26T10:03:46;1.80;;;1.63;;
14141;SDS011;7151;52.246;4.820;2024-02-26T10:06:30;3.03;;;1.87;;
14141;SDS011;7151;52.246;4.820;2024-02-26T10:08:56;2.37;;;1.73;;
14141;SDS011;7151;52.246;4.820;2024-02-26T10:11:23;3.30;;;1.50;;
14141;SDS011;7151;52.246;4.820;2024-02-26T10:13:52;2.33;;;1.80;;
14141;SDS011;7151;52.246;4.820;2024-02-26T10:16:18;3.23;;;2.07;;
14141;SDS011;7151;52.246;4.820;2024-02-26T10:21:16;4.93;;;1.53;;
14141;SDS011;7151;52.246;4.820;2024-02-26T10:23:43;2.27;;;1.53;;
14141;SDS011;7151;52.246;4.820;2024-02-26T10:26:10;3.43;;;1.50;;
14141;SDS011;7151;52.246;4.820;2024-02-26T10:28:37;1.77;;;1.60;;
14141;SDS011;7151;52.246;4.820;2024-02-26T10:31:04;2.63;;;1.70;;
14141;SDS011;7151;52.246;4.820;2024-02-26T10:33:29;3.47;;;1.70;;
14141;SDS011;7151;52.246;4.820;2024-02-26T10:35:58;2.60;;;1.77;;
14141;SDS011;7151;52.246;4.820;2024-02-26T10:38:24;2.13;;;1.40;;
14141;SDS011;7151;52.246;4.820;2024-02-26T10:40:49;3.80;;;2.20;;
14141;SDS011;7151;52.246;4.820;2024-02-26T10:43:15;2.93;;;1.70;;
14141;SDS011;7151;52.246;4.820;2024-02-26T10:45:41;2.13;;;1.47;;
14141;SDS011;7151;52.246;4.820;2024-02-26T10:48:12;2.53;;;1.37;;
14141;SDS011;7151;52.246;4.820;2024-02-26T10:50:38;3.83;;;1.93;;
14141;SDS011;7151;52.246;4.820;2024-02-26T10:53:05;3.07;;;1.87;;
14141;SDS011;7151;52.246;4.820;2024-02-26T10:55:41;2.60;;;1.50;;
14141;SDS011;7151;52.246;4.820;2024-02-26T10:58:10;2.03;;;1.60;;
14141;SDS011;7151;52.246;4.820;2024-02-26T11:00:37;1.93;;;1.60;;
14141;SDS011;7151;52.246;4.820;2024-02-26T11:03:04;1.77;;;1.17;;
14141;SDS011;7151;52.246;4.820;2024-02-26T11:05:31;2.13;;;1.63;;
14141;SDS011;7151;52.246;4.820;2024-02-26T11:07:58;4.10;;;1.80;;
14141;SDS011;7151;52.246;4.820;2024-02-26T11:10:25;1.33;;;1.10;;
14141;SDS011;7151;52.246;4.820;2024-02-26T11:12:54;1.57;;;1.30;;
14141;SDS011;7151;52.246;4.820;2024-02-26T11:15:23;1.47;;;1.33;;
14141;SDS011;7151;52.246;4.820;2024-02-26T11:17:49;1.67;;;1.27;;
14141;SDS011;7151;52.246;4.820;2024-02-26T11:20:19;2.30;;;1.10;;
14141;SDS011;7151;52.246;4.820;2024-02-26T11:22:45;1.57;;;1.27;;
14141;SDS011;7151;52.246;4.820;2024-02-26T11:25:11;2.03;;;1.23;;
14141;SDS011;7151;52.246;4.820;2024-02-26T11:27:43;1.67;;;1.43;;
14141;SDS011;7151;52.246;4.820;2024-02-26T11:30:13;2.30;;;1.13;;
14141;SDS011;7151;52.246;4.820;2024-02-26T11:32:40;2.30;;;1.33;;
14141;SDS011;7151;52.246;4.820;2024-02-26T11:35:10;1.13;;;0.90;;
14141;SDS011;7151;52.246;4.820;2024-02-26T11:37:38;3.30;;;1.00;;
14141;SDS011;7151;52.246;4.820;2024-02-26T11:40:04;1.90;;;1.07;;
14141;SDS011;7151;52.246;4.820;2024-02-26T11:42:37;0.80;;;0.63;;
14141;SDS011;7151;52.246;4.820;2024-02-26T11:48:20;0.87;;;0.83;;
14141;SDS011;7151;52.246;4.820;2024-02-26T11:50:52;1.57;;;0.93;;
14141;SDS011;7151;52.246;4.820;2024-02-26T11:53:19;1.33;;;1.17;;
14141;SDS011;7151;52.246;4.820;2024-02-26T11:58:44;1.43;;;1.00;;
14141;SDS011;7151;52.246;4.820;2024-02-26T12:04:04;0.80;;;0.80;;
14141;SDS011;7151;52.246;4.820;2024-02-26T12:06:31;1.13;;;0.83;;
14141;SDS011;7151;52.246;4.820;2024-02-26T12:09:05;1.00;;;0.73;;
14141;SDS011;7151;52.246;4.820;2024-02-26T12:11:30;1.20;;;0.90;;
14141;SDS011;7151;52.246;4.820;2024-02-26T12:13:56;1.10;;;0.70;;
14141;SDS011;7151;52.246;4.820;2024-02-26T12:16:34;1.37;;;0.80;;
14141;SDS011;7151;52.246;4.820;2024-02-26T12:19:03;1.03;;;0.90;;
14141;SDS011;7151;52.246;4.820;2024-02-26T12:21:31;1.77;;;0.80;;
14141;SDS011;7151;52.246;4.820;2024-02-26T12:24:11;1.50;;;0.90;;
14141;SDS011;7151;52.246;4.820;2024-02-26T12:26:43;1.43;;;0.97;;
14141;SDS011;7151;52.246;4.820;2024-02-26T12:29:08;2.13;;;0.97;;
14141;SDS011;7151;52.246;4.820;2024-02-26T12:31:36;1.43;;;0.97;;
14141;SDS011;7151;52.246;4.820;2024-02-26T12:34:02;1.93;;;1.07;;
14141;SDS011;7151;52.246;4.820;2024-02-26T12:36:28;1.07;;;0.83;;
14141;SDS011;7151;52.246;4.820;2024-02-26T12:38:54;1.57;;;0.80;;
14141;SDS011;7151;52.246;4.820;2024-02-26T12:41:21;1.73;;;0.93;;
14141;SDS011;7151;52.246;4.820;2024-02-26T12:43:47;1.80;;;1.17;;
14141;SDS011;7151;52.246;4.820;2024-02-26T12:46:13;2.80;;;1.13;;
14141;SDS011;7151;52.246;4.820;2024-02-26T12:48:42;1.97;;;1.13;;
14141;SDS011;7151;52.246;4.820;2024-02-26T12:51:09;1.13;;;0.90;;
14141;SDS011;7151;52.246;4.820;2024-02-26T12:53:37;2.20;;;0.87;;
14141;SDS011;7151;52.246;4.820;2024-02-26T12:56:03;2.23;;;1.10;;
14141;SDS011;7151;52.246;4.820;2024-02-26T12:58:30;1.83;;;1.07;;
14141;SDS011;7151;52.246;4.820;2024-02-26T13:00:57;1.23;;;0.90;;
14141;SDS011;7151;52.246;4.820;2024-02-26T13:03:22;1.27;;;1.10;;
14141;SDS011;7151;52.246;4.820;2024-02-26T13:05:51;0.80;;;0.70;;
14141;SDS011;7151;52.246;4.820;2024-02-26T13:08:19;1.30;;;1.00;;
14141;SDS011;7151;52.246;4.820;2024-02-26T13:10:48;2.20;;;1.00;;
14141;SDS011;7151;52.246;4.820;2024-02-26T13:13:15;2.00;;;1.17;;
14141;SDS011;7151;52.246;4.820;2024-02-26T13:15:45;1.83;;;1.03;;
14141;SDS011;7151;52.246;4.820;2024-02-26T13:18:12;1.83;;;1.00;;
14141;SDS011;7151;52.246;4.820;2024-02-26T13:20:38;1.43;;;0.80;;
14141;SDS011;7151;52.246;4.820;2024-02-26T13:23:10;3.10;;;1.03;;
14141;SDS011;7151;52.246;4.820;2024-02-26T13:25:37;1.53;;;1.10;;
14141;SDS011;7151;52.246;4.820;2024-02-26T13:28:17;1.07;;;0.90;;
14141;SDS011;7151;52.246;4.820;2024-02-26T13:30:52;1.17;;;0.90;;
14141;SDS011;7151;52.246;4.820;2024-02-26T13:33:21;0.83;;;0.80;;
14141;SDS011;7151;52.246;4.820;2024-02-26T13:35:47;1.20;;;1.00;;
14141;SDS011;7151;52.246;4.820;2024-02-26T13:38:13;1.47;;;0.87;;
14141;SDS011;7151;52.246;4.820;2024-02-26T13:40:39;0.83;;;0.67;;
14141;SDS011;7151;52.246;4.820;2024-02-26T13:43:05;1.40;;;1.00;;
14141;SDS011;7151;52.246;4.820;2024-02-26T13:45:33;1.57;;;0.83;;
14141;SDS011;7151;52.246;4.820;2024-02-26T13:48:03;6.47;;;1.13;;
14141;SDS011;7151;52.246;4.820;2024-02-26T13:50:30;1.30;;;1.20;;
14141;SDS011;7151;52.246;4.820;2024-02-26T13:52:56;2.40;;;1.10;;
14141;SDS011;7151;52.246;4.820;2024-02-26T13:55:23;2.63;;;0.87;;
14141;SDS011;7151;52.246;4.820;2024-02-26T13:57:51;5.97;;;1.53;;
14141;SDS011;7151;52.246;4.820;2024-02-26T14:00:19;1.77;;;0.90;;
14141;SDS011;7151;52.246;4.820;2024-02-26T14:02:45;1.90;;;1.00;;
14141;SDS011;7151;52.246;4.820;2024-02-26T14:05:11;2.50;;;1.03;;
14141;SDS011;7151;52.246;4.820;2024-02-26T14:07:36;2.90;;;1.20;;
14141;SDS011;7151;52.246;4.820;2024-02-26T14:10:02;1.83;;;1.20;;
14141;SDS011;7151;52.246;4.820;2024-02-26T14:12:28;1.07;;;0.93;;
14141;SDS011;7151;52.246;4.820;2024-02-26T14:14:54;2.73;;;1.23;;
14141;SDS011;7151;52.246;4.820;2024-02-26T14:17:20;1.27;;;0.97;;
14141;SDS011;7151;52.246;4.820;2024-02-26T14:19:47;1.67;;;1.53;;
14141;SDS011;7151;52.246;4.820;2024-02-26T14:22:13;1.73;;;1.40;;
14141;SDS011;7151;52.246;4.820;2024-02-26T14:24:42;1.67;;;1.20;;
14141;SDS011;7151;52.246;4.820;2024-02-26T14:27:10;2.13;;;1.57;;
14141;SDS011;7151;52.246;4.820;2024-02-26T14:29:42;2.77;;;1.10;;
14141;SDS011;7151;52.246;4.820;2024-02-26T14:32:08;2.67;;;1.37;;
14141;SDS011;7151;52.246;4.820;2024-02-26T14:34:35;4.03;;;1.43;;
14141;SDS011;7151;52.246;4.820;2024-02-26T14:37:00;2.13;;;1.20;;
14141;SDS011;7151;52.246;4.820;2024-02-26T14:39:26;2.17;;;1.30;;
14141;SDS011;7151;52.246;4.820;2024-02-26T14:41:52;2.67;;;1.47;;
14141;SDS011;7151;52.246;4.820;2024-02-26T14:44:18;2.60;;;1.47;;
14141;SDS011;7151;52.246;4.820;2024-02-26T14:46:43;2.03;;;1.40;;
14141;SDS011;7151;52.246;4.820;2024-02-26T14:49:09;2.57;;;1.37;;
14141;SDS011;7151;52.246;4.820;2024-02-26T14:51:36;4.30;;;1.27;;
14141;SDS011;7151;52.246;4.820;2024-02-26T14:54:02;5.13;;;1.13;;
14141;SDS011;7151;52.246;4.820;2024-02-26T14:56:27;2.27;;;1.20;;
14141;SDS011;7151;52.246;4.820;2024-02-26T14:58:53;2.30;;;1.20;;
14141;SDS011;7151;52.246;4.820;2024-02-26T15:01:19;2.97;;;1.50;;
14141;SDS011;7151;52.246;4.820;2024-02-26T15:03:48;2.27;;;1.67;;
14141;SDS011;7151;52.246;4.820;2024-02-26T15:06:14;1.30;;;1.20;;
14141;SDS011;7151;52.246;4.820;2024-02-26T15:08:39;3.30;;;1.60;;